Time;durP1;ratioP1;P1;durP2;ratioP2;P2;SDS_P1;SDS_P2;PMS_P1;PMS_P2;Temp;Humidity;BMP_temperature;BMP_pressure;BME280_temperature;BME280_humidity;BME280_pressure;Samples;Min_cycle;Max_cycle;Signal;HPM_P1;HPM_P2
2023/01/12 00:01:27;;;;;;;5.15;3.00;;;;;;;1.72;100.00;99083.06;4453153;32;20104;-73
2023/01/12 00:03:54;;;;;;;7.15;2.87;;;;;;;1.74;100.00;99081.22;4452965;32;20204;-72
2023/01/12 00:06:22;;;;;;;5.43;2.60;;;;;;;1.67;100.00;99075.53;4453115;32;20135;-72
2023/01/12 00:08:50;;;;;;;7.85;3.22;;;;;;;1.69;100.00;99078.03;4453455;32;20101;-72
2023/01/12 00:11:19;;;;;;;6.60;3.10;;;;;;;1.70;100.00;99079.72;4454940;32;20223;-72
2023/01/12 00:13:47;;;;;;;4.90;2.72;;;;;;;1.77;100.00;99081.94;4454917;32;20105;-72
2023/01/12 00:16:36;;;;;;;6.55;3.12;;;;;;;1.77;100.00;99081.94;4455229;32;20737;-72
2023/01/12 00:19:10;;;;;;;5.37;2.70;;;;;;;1.78;100.00;99087.94;4454930;32;20093;-72
2023/01/12 00:21:59;;;;;;;5.82;2.60;;;;;;;1.80;100.00;99090.44;4454949;32;20109;-72
2023/01/12 00:24:33;;;;;;;8.77;3.33;;;;;;;1.82;100.00;99092.06;4454726;32;20101;-72
2023/01/12 00:27:02;;;;;;;6.68;3.33;;;;;;;1.89;100.00;99077.06;4455190;32;20104;-72
2023/01/12 00:29:30;;;;;;;8.00;3.45;;;;;;;2.01;100.00;99080.81;4454571;32;20085;-72
2023/01/12 00:31:59;;;;;;;7.30;3.05;;;;;;;2.07;100.00;99075.34;4454680;32;20093;-72
2023/01/12 00:34:27;;;;;;;6.43;3.33;;;;;;;2.20;100.00;99078.16;4454871;32;20089;-72
2023/01/12 00:36:57;;;;;;;7.22;3.20;;;;;;;2.25;100.00;99089.09;4454801;32;20173;-72
2023/01/12 00:39:24;;;;;;;11.00;3.10;;;;;;;2.30;100.00;99092.28;4440725;32;20128;-72
2023/01/12 00:47:23;;;;;;;7.97;3.12;;;;;;;2.55;100.00;99084.13;4454753;32;20416;-72
2023/01/12 00:49:50;;;;;;;7.50;3.65;;;;;;;2.56;100.00;99078.06;4440638;32;20105;-72
2023/01/12 00:52:19;;;;;;;10.95;4.20;;;;;;;2.60;100.00;99087.31;4454753;32;20531;-72
2023/01/12 00:55:01;;;;;;;10.45;4.07;;;;;;;2.71;100.00;99083.31;4454721;32;20122;-72
2023/01/12 00:57:28;;;;;;;11.85;3.90;;;;;;;2.80;100.00;99081.13;4454584;32;20162;-72
2023/01/12 00:59:57;;;;;;;9.20;4.00;;;;;;;2.87;100.00;99086.78;4454622;32;20216;-72
2023/01/12 01:02:27;;;;;;;7.75;3.58;;;;;;;2.93;100.00;99094.22;4454824;32;20521;-72
2023/01/12 01:04:54;;;;;;;11.70;3.62;;;;;;;2.94;100.00;99095.91;4454602;32;20131;-72
2023/01/12 01:07:21;;;;;;;8.07;3.60;;;;;;;2.99;100.00;99091.31;4455007;32;20139;-72
2023/01/12 01:09:49;;;;;;;11.32;3.70;;;;;;;3.04;100.00;99096.25;4454412;32;20208;-72
2023/01/12 01:12:16;;;;;;;8.23;3.78;;;;;;;3.08;100.00;99099.53;4454697;32;20120;-72
2023/01/12 01:14:46;;;;;;;10.40;4.15;;;;;;;3.11;100.00;99102.78;4454465;32;20552;-72
2023/01/12 01:17:14;;;;;;;7.87;3.67;;;;;;;3.16;100.00;99105.97;4454553;32;20143;-72
2023/01/12 01:19:42;;;;;;;8.05;4.03;;;;;;;3.19;100.00;99104.97;4454216;32;20168;-72
2023/01/12 01:22:11;;;;;;;8.98;3.87;;;;;;;3.21;100.00;99108.31;4454420;32;20124;-72
2023/01/12 01:24:39;;;;;;;6.20;3.60;;;;;;;3.27;100.00;99101.94;4454427;32;20184;-72
2023/01/12 01:27:06;;;;;;;7.47;4.20;;;;;;;3.25;100.00;99109.81;4454569;32;20116;-72
2023/01/12 01:29:33;;;;;;;7.62;4.07;;;;;;;3.28;100.00;99114.81;4454101;32;20096;-72
2023/01/12 01:32:00;;;;;;;9.25;4.57;;;;;;;3.29;100.00;99115.66;4454607;32;20077;-72
2023/01/12 01:34:27;;;;;;;12.48;5.18;;;;;;;3.33;100.00;99119.75;4454183;32;20093;-72
2023/01/12 01:36:54;;;;;;;13.38;5.45;;;;;;;3.45;100.00;99126.03;4454408;32;20148;-72
2023/01/12 01:39:22;;;;;;;9.43;4.20;;;;;;;3.39;100.00;99116.81;4454166;32;20148;-72
2023/01/12 01:41:49;;;;;;;11.27;4.87;;;;;;;3.41;100.00;99121.91;4454319;32;20089;-72
2023/01/12 01:44:28;;;;;;;8.30;4.57;;;;;;;3.41;100.00;99124.50;4454207;32;20093;-72
2023/01/12 01:47:05;;;;;;;11.98;5.62;;;;;;;3.37;100.00;99132.44;4454406;32;20120;-72
2023/01/12 01:49:42;;;;;;;13.20;6.28;;;;;;;3.32;100.00;99126.69;4440256;32;20500;-72
2023/01/12 01:52:20;;;;;;;15.00;6.93;;;;;;;3.35;100.00;99121.34;4454260;32;20166;-72
2023/01/12 01:54:54;;;;;;;17.55;7.93;;;;;;;3.27;100.00;99117.47;4440192;32;20110;-72
2023/01/12 01:57:25;;;;;;;18.20;8.65;;;;;;;3.23;100.00;99116.81;4454368;32;20123;-72
2023/01/12 01:59:53;;;;;;;21.40;8.85;;;;;;;3.10;100.00;99115.81;4454281;32;20167;-72
2023/01/12 02:02:22;;;;;;;19.62;8.88;;;;;;;3.05;100.00;99117.81;4439943;32;20215;-72
2023/01/12 02:04:49;;;;;;;25.95;11.27;;;;;;;3.19;100.00;99118.75;4440169;32;20605;-72
2023/01/12 02:07:17;;;;;;;20.50;9.45;;;;;;;3.24;100.00;99123.69;4440206;32;20149;-72
2023/01/12 02:09:44;;;;;;;21.60;10.30;;;;;;;3.30;100.00;99130.25;4453964;32;20116;-72
2023/01/12 02:17:57;;;;;;;29.10;10.88;;;;;;;2.98;100.00;99123.31;4454019;32;20090;-72
2023/01/12 02:20:33;;;;;;;23.85;10.77;;;;;;;2.95;100.00;99131.25;4453878;32;20120;-72
2023/01/12 02:23:19;;;;;;;23.80;10.80;;;;;;;2.91;100.00;99137.47;4453877;32;20112;-72
2023/01/12 02:26:24;;;;;;;23.02;11.10;;;;;;;2.93;100.00;99130.47;4453976;32;20168;-72
2023/01/12 02:28:51;;;;;;;27.15;10.63;;;;;;;2.87;100.00;99130.78;4453853;32;20093;-72
2023/01/12 02:31:39;;;;;;;22.45;10.02;;;;;;;2.77;100.00;99129.56;4453217;32;20085;-72
2023/01/12 02:34:46;;;;;;;19.85;9.85;;;;;;;2.84;100.00;99113.66;4427361;32;20160;-72
2023/01/12 02:37:38;;;;;;;20.40;9.82;;;;;;;2.98;100.00;99125.91;4453819;32;20158;-72
2023/01/12 02:40:09;;;;;;;21.48;9.77;;;;;;;3.05;100.00;99123.00;4454003;32;20154;-72
2023/01/12 02:42:46;;;;;;;24.35;10.60;;;;;;;3.12;100.00;99126.91;4454015;32;20159;-72
2023/01/12 02:45:33;;;;;;;23.50;10.68;;;;;;;3.15;100.00;99126.75;4440108;32;20096;-72
2023/01/12 02:48:06;;;;;;;23.23;11.10;;;;;;;3.13;100.00;99128.59;4440113;32;20097;-72
2023/01/12 02:51:11;;;;;;;24.33;12.07;;;;;;;3.02;100.00;99134.31;4453687;32;20085;-72
2023/01/12 02:53:42;;;;;;;;;;;;;;;3.12;100.00;99121.72;4454352;32;20089;-72
2023/01/12 02:56:11;;;;;;;20.55;10.65;;;;;;;3.12;100.00;99130.34;4454012;32;20318;-72
2023/01/12 02:58:45;;;;;;;26.85;11.40;;;;;;;3.15;100.00;99116.37;4439833;32;20111;-72
2023/01/12 03:01:13;;;;;;;22.62;10.38;;;;;;;3.15;100.00;99122.41;4439873;32;20098;-72
2023/01/12 03:03:41;;;;;;;23.20;11.10;;;;;;;3.07;100.00;99126.31;4439776;32;20101;-72
2023/01/12 03:06:17;;;;;;;21.48;10.73;;;;;;;3.16;100.00;99116.34;4439698;32;20146;-72
2023/01/12 03:08:46;;;;;;;24.75;11.02;;;;;;;3.17;100.00;99122.34;4453874;32;20081;-72
2023/01/12 03:11:19;;;;;;;20.73;10.13;;;;;;;3.16;100.00;99121.50;4439751;32;20109;-72
2023/01/12 03:13:55;;;;;;;25.10;10.77;;;;;;;3.08;100.00;99125.41;4439822;32;20164;-72
2023/01/12 03:16:26;;;;;;;18.98;10.00;;;;;;;3.01;100.00;99128.31;4439440;32;20126;-72
2023/01/12 03:18:57;;;;;;;20.40;9.63;;;;;;;3.01;100.00;99115.38;4453823;32;20438;-72
2023/01/12 03:21:28;;;;;;;18.12;9.00;;;;;;;3.04;100.00;99116.94;4436917;32;20159;-72
2023/01/12 03:24:00;;;;;;;16.48;9.05;;;;;;;3.04;100.00;99110.94;4438134;32;20144;-72
2023/01/12 03:26:29;;;;;;;18.62;9.25;;;;;;;2.97;100.00;99113.03;4424302;32;20093;-72
2023/01/12 03:29:14;;;;;;;16.98;8.55;;;;;;;2.88;100.00;99116.09;4436688;32;20759;-72
2023/01/12 03:31:41;;;;;;;23.15;8.93;;;;;;;2.81;100.00;99115.56;4424092;32;20094;-72
2023/01/12 03:34:09;;;;;;;17.62;9.55;;;;;;;2.74;100.00;99119.38;4438087;32;20124;-72
2023/01/12 03:37:03;;;;;;;21.30;9.15;;;;;;;2.70;100.00;99115.31;4438028;32;20085;-72
2023/01/12 03:39:59;;;;;;;17.20;8.82;;;;;;;2.76;100.00;99118.41;4438072;32;20510;-72
2023/01/12 03:42:35;;;;;;;19.33;8.63;;;;;;;2.83;100.00;99118.91;4437611;32;20180;-72
2023/01/12 03:45:24;;;;;;;17.75;8.93;;;;;;;2.74;100.00;99115.06;4437991;32;20085;-72
2023/01/12 03:47:59;;;;;;;19.23;9.32;;;;;;;2.70;100.00;99104.97;4438005;32;20077;-72
2023/01/12 03:50:33;;;;;;;17.30;8.63;;;;;;;2.70;100.00;99100.63;4423832;32;20147;-72
2023/01/12 03:53:01;;;;;;;17.45;9.02;;;;;;;2.73;100.00;99097.03;4423925;32;20152;-72
2023/01/12 03:55:29;;;;;;;19.58;8.55;;;;;;;2.79;100.00;99104.47;4437682;32;20092;-72
2023/01/12 03:57:57;;;;;;;18.60;10.00;;;;;;;2.81;100.00;99105.22;4423683;32;20085;-72
2023/01/12 04:00:26;;;;;;;18.02;7.70;;;;;;;2.87;100.00;99110.06;4423790;32;20101;-72
2023/01/12 04:03:23;;;;;;;18.80;8.43;;;;;;;2.92;100.00;99121.03;4423501;32;20156;-72
2023/01/12 04:05:50;;;;;;;20.83;8.98;;;;;;;2.94;100.00;99124.37;4374235;32;20114;-72
2023/01/12 04:08:17;;;;;;;20.40;8.63;;;;;;;3.04;100.00;99123.87;4374523;32;20541;-72
2023/01/12 04:10:44;;;;;;;18.95;9.35;;;;;;;3.10;100.00;99124.37;4386734;32;20496;-72
2023/01/12 04:13:12;;;;;;;18.65;9.25;;;;;;;3.01;100.00;99107.63;4389656;32;20158;-72
2023/01/12 04:15:41;;;;;;;20.12;9.32;;;;;;;3.00;100.00;99108.53;4389396;32;20115;-72
2023/01/12 04:18:09;;;;;;;20.05;8.77;;;;;;;2.95;100.00;99102.78;4389513;32;20158;-72
2023/01/12 04:20:37;;;;;;;16.45;8.75;;;;;;;2.98;100.00;99107.78;4389756;32;20144;-72
2023/01/12 04:23:08;;;;;;;18.67;9.02;;;;;;;2.98;100.00;99109.50;4388957;32;20472;-72
2023/01/12 04:25:35;;;;;;;19.65;9.63;;;;;;;2.91;100.00;99109.00;4389254;32;20203;-72
2023/01/12 04:28:05;;;;;;;16.40;9.13;;;;;;;2.82;100.00;99106.91;4388903;32;20148;-72
2023/01/12 04:30:33;;;;;;;24.45;10.65;;;;;;;2.74;100.00;99106.44;4389272;32;20125;-72
2023/01/12 04:33:06;;;;;;;22.00;10.32;;;;;;;2.69;100.00;99104.09;4389077;32;20480;-72
2023/01/12 04:35:35;;;;;;;18.65;9.25;;;;;;;2.55;100.00;99114.34;4389110;32;20177;-72
2023/01/12 04:38:06;;;;;;;21.30;10.63;;;;;;;2.48;100.00;99118.97;4388999;32;20115;-72
2023/01/12 04:40:33;;;;;;;19.92;10.20;;;;;;;2.49;100.00;99112.88;4389217;32;20090;-72
2023/01/12 04:43:00;;;;;;;26.08;11.32;;;;;;;2.59;100.00;99105.47;4438835;32;20463;-72
2023/01/12 04:45:30;;;;;;;22.08;10.63;;;;;;;2.60;100.00;99113.16;4438257;32;20093;-72
2023/01/12 04:48:08;;;;;;;23.95;11.38;;;;;;;2.66;100.00;99115.47;4452484;32;20093;-72
2023/01/12 04:50:37;;;;;;;20.80;10.70;;;;;;;2.57;100.00;99113.31;4452498;32;20138;-72
2023/01/12 04:53:05;;;;;;;27.02;10.95;;;;;;;2.50;100.00;99117.16;4452276;32;20174;-72
2023/01/12 04:55:35;;;;;;;22.35;10.20;;;;;;;2.63;100.00;99117.34;4453784;32;20093;-72
2023/01/12 04:58:03;;;;;;;26.83;11.85;;;;;;;2.60;100.00;99120.94;4454685;32;20157;-72
2023/01/12 05:00:30;;;;;;;27.25;11.35;;;;;;;2.69;100.00;99113.62;4454971;32;20077;-72
2023/01/12 05:03:00;;;;;;;25.20;11.55;;;;;;;2.62;100.00;99121.69;4454599;32;20119;-72
2023/01/12 05:05:29;;;;;;;25.55;11.55;;;;;;;2.69;100.00;99117.03;4454898;32;20094;-72
2023/01/12 05:10:51;;;;;;;25.58;11.02;;;;;;;2.69;100.00;99113.62;4453239;32;20096;-73
2023/01/12 05:13:19;;;;;;;23.15;11.05;;;;;;;2.70;100.00;99123.06;4453251;32;20104;-72
2023/01/12 05:15:46;;;;;;;24.00;11.05;;;;;;;2.65;100.00;99121.53;4453237;32;20171;-72
2023/01/12 05:18:14;;;;;;;21.58;10.43;;;;;;;2.61;100.00;99125.19;4451071;32;20159;-72
2023/01/12 05:20:41;;;;;;;28.05;11.63;;;;;;;2.60;100.00;99133.84;4453236;32;20167;-72
2023/01/12 05:23:08;;;;;;;22.48;11.85;;;;;;;2.63;100.00;99138.91;4452831;32;20450;-72
2023/01/12 05:25:36;;;;;;;24.58;11.02;;;;;;;2.63;100.00;99133.72;4452680;32;20599;-72
2023/01/12 05:28:03;;;;;;;24.67;11.82;;;;;;;2.59;100.00;99139.97;4452727;32;20179;-72
2023/01/12 05:30:30;;;;;;;21.85;11.38;;;;;;;2.66;100.00;99138.75;4451908;32;20093;-72
2023/01/12 05:32:58;;;;;;;26.60;11.10;;;;;;;2.65;100.00;99131.87;4451188;32;20144;-71
2023/01/12 05:35:25;;;;;;;18.33;9.77;;;;;;;2.67;100.00;99127.47;4450248;32;20093;-71
2023/01/12 05:37:55;;;;;;;24.33;10.27;;;;;;;2.73;100.00;99128.09;4452734;32;20097;-71
2023/01/12 05:40:23;;;;;;;28.02;11.77;;;;;;;2.79;100.00;99127.75;4450148;32;20946;-71
2023/01/12 05:45:36;;;;;;;26.67;10.45;;;;;;;2.85;100.00;99122.28;4450977;32;20545;-71
2023/01/12 05:48:04;;;;;;;28.20;11.55;;;;;;;2.78;100.00;99129.50;4449312;32;20155;-71
2023/01/12 05:50:31;;;;;;;31.25;11.02;;;;;;;2.77;100.00;99129.56;4451309;32;20101;-71
2023/01/12 05:53:07;;;;;;;22.42;10.57;;;;;;;2.81;100.00;99128.50;4436477;32;20532;-71
2023/01/12 05:55:36;;;;;;;24.70;10.65;;;;;;;2.78;100.00;99133.84;4452986;32;20115;-71
2023/01/12 05:58:03;;;;;;;24.50;10.20;;;;;;;2.80;100.00;99132.00;4448427;32;20093;-72
2023/01/12 06:00:30;;;;;;;24.12;11.10;;;;;;;2.80;100.00;99139.78;4450759;32;20154;-72
2023/01/12 06:02:58;;;;;;;25.73;11.02;;;;;;;2.88;100.00;99136.78;4448743;32;20166;-71
2023/01/12 06:05:25;;;;;;;22.70;10.23;;;;;;;2.86;100.00;99130.88;4448546;32;20132;-72
2023/01/12 06:07:52;;;;;;;24.58;11.30;;;;;;;2.82;100.00;99128.44;4451212;32;20166;-72
2023/01/12 06:10:19;;;;;;;25.10;11.35;;;;;;;2.90;100.00;99129.78;4445046;32;20100;-72
2023/01/12 06:15:35;;;;;;;23.45;11.05;;;;;;;2.89;100.00;99128.94;4447854;32;20089;-72
2023/01/12 06:18:02;;;;;;;23.58;10.57;;;;;;;2.80;100.00;99119.06;4452293;32;20108;-72
2023/01/12 06:20:29;;;;;;;25.58;11.93;;;;;;;2.68;100.00;99120.56;4451937;32;20527;-72
2023/01/12 06:23:01;;;;;;;24.45;10.43;;;;;;;2.69;100.00;99131.72;4449452;32;20157;-72
2023/01/12 06:25:28;;;;;;;20.42;10.02;;;;;;;2.63;100.00;99133.72;4431689;32;20105;-72
2023/01/12 06:27:56;;;;;;;24.55;9.77;;;;;;;2.63;100.00;99138.91;4450046;32;20174;-72
2023/01/12 06:30:23;;;;;;;27.30;10.25;;;;;;;2.67;100.00;99139.56;4450595;32;20158;-72
2023/01/12 06:32:51;;;;;;;18.50;9.07;;;;;;;2.66;100.00;99149.09;4448468;32;20485;-72
2023/01/12 06:35:18;;;;;;;23.38;9.48;;;;;;;2.72;100.00;99157.44;4451384;32;20158;-72
2023/01/12 06:37:46;;;;;;;21.75;10.32;;;;;;;2.76;100.00;99153.78;4452312;32;20105;-72
2023/01/12 06:40:14;;;;;;;23.58;9.95;;;;;;;2.81;100.00;99164.72;4452918;32;20525;-72
2023/01/12 06:42:41;;;;;;;26.92;10.68;;;;;;;2.84;100.00;99168.00;4452337;32;20093;-72
2023/01/12 06:45:09;;;;;;;23.20;11.35;;;;;;;2.82;100.00;99169.00;4453208;32;20165;-72
2023/01/12 06:47:48;;;;;;;23.40;10.07;;;;;;;2.83;100.00;99176.69;4452622;32;20104;-72
2023/01/12 06:50:15;;;;;;;24.90;10.68;;;;;;;2.87;100.00;99177.34;4452234;32;20157;-71
2023/01/12 06:52:42;;;;;;;21.25;10.48;;;;;;;2.98;100.00;99167.31;4452207;32;20170;-71
2023/01/12 06:55:10;;;;;;;21.55;10.35;;;;;;;3.12;100.00;99179.53;4450367;32;20109;-71
2023/01/12 06:57:37;;;;;;;24.83;11.45;;;;;;;3.15;100.00;99183.69;4439950;32;20092;-71
2023/01/12 07:00:05;;;;;;;28.05;11.60;;;;;;;3.19;100.00;99190.38;4449718;32;21206;-72
2023/01/12 07:02:33;;;;;;;27.73;10.88;;;;;;;3.29;100.00;99194.19;4455811;32;20136;-71
2023/01/12 07:05:00;;;;;;;18.02;9.07;;;;;;;3.23;100.00;99184.16;4447729;32;20146;-71
2023/01/12 07:07:27;;;;;;;21.77;9.90;;;;;;;3.23;100.00;99183.31;4435542;32;20150;-71
2023/01/12 07:09:54;;;;;;;23.30;11.27;;;;;;;3.26;100.00;99189.16;4445576;32;20097;-71
2023/01/12 07:12:23;;;;;;;27.20;12.07;;;;;;;3.14;100.00;99194.97;4450902;32;20134;-72
2023/01/12 07:14:51;;;;;;;24.90;11.10;;;;;;;3.13;100.00;99195.88;4445554;32;20140;-73
2023/01/12 07:17:18;;;;;;;21.30;10.52;;;;;;;3.32;100.00;99191.44;4449422;32;20107;-73
2023/01/12 07:19:46;;;;;;;22.92;9.90;;;;;;;3.43;100.00;99179.66;4449424;32;20120;-73
2023/01/12 07:22:13;;;;;;;26.33;9.52;;;;;;;3.56;100.00;99185.87;4449700;32;20144;-72
2023/01/12 07:24:40;;;;;;;24.70;10.77;;;;;;;3.69;100.00;99192.06;4449204;32;20123;-72
2023/01/12 07:27:08;;;;;;;25.75;10.73;;;;;;;3.71;100.00;99195.41;4448855;32;20109;-72
2023/01/12 07:29:35;;;;;;;20.12;10.00;;;;;;;3.80;100.00;99201.84;4447214;32;20552;-71
2023/01/12 07:32:02;;;;;;;22.62;9.95;;;;;;;3.84;100.00;99205.91;4450317;32;20097;-72
2023/01/12 07:34:30;;;;;;;21.95;10.30;;;;;;;3.75;100.00;99208.19;4451822;32;20160;-71
2023/01/12 07:36:57;;;;;;;27.73;11.30;;;;;;;3.81;100.00;99211.28;4451280;32;20119;-71
2023/01/12 07:39:24;;;;;;;25.95;11.63;;;;;;;3.96;100.00;99219.97;4452257;32;20472;-72
2023/01/12 07:44:39;;;;;;;23.90;10.88;;;;;;;3.94;100.00;99232.19;4446392;32;20147;-73
2023/01/12 07:47:06;;;;;;;22.08;11.80;;;;;;;4.01;100.00;99228.34;4445247;32;20105;-72
2023/01/12 07:49:33;;;;;;;24.73;12.43;;;;;;;4.20;100.00;99240.28;4448504;32;20150;-72
2023/01/12 07:52:00;;;;;;;30.70;12.10;;;;;;;4.22;100.00;99223.72;4447719;32;21053;-72
2023/01/12 07:54:28;;;;;;;21.60;11.30;;;;;;;4.38;100.00;99231.47;4449652;32;20108;-73
2023/01/12 07:56:56;;;;;;;24.33;11.95;;;;;;;4.34;100.00;99229.97;4447440;32;20101;-70
2023/01/12 07:59:24;;;;;;;25.77;11.90;;;;;;;4.12;100.00;99225.16;4446047;32;20455;-73
2023/01/12 08:01:53;;;;;;;24.85;11.88;;;;;;;4.14;100.00;99227.66;4446743;32;20165;-73
2023/01/12 08:04:21;;;;;;;27.90;12.60;;;;;;;4.35;100.00;99231.66;4445297;32;20482;-72
2023/01/12 08:06:48;;;;;;;25.12;11.35;;;;;;;4.19;100.00;99234.25;4450689;32;20139;-71
2023/01/12 08:09:15;;;;;;;24.92;11.77;;;;;;;4.34;100.00;99235.16;4448533;32;20113;-71
2023/01/12 08:11:43;;;;;;;23.50;10.60;;;;;;;4.54;100.00;99236.66;4448067;32;20150;-71
2023/01/12 08:14:15;;;;;;;27.65;12.82;;;;;;;4.37;100.00;99234.97;4449091;32;20172;-71
2023/01/12 08:16:45;;;;;;;29.58;12.27;;;;;;;4.44;100.00;99235.50;4433094;32;20157;-70
2023/01/12 08:19:16;;;;;;;26.92;12.23;;;;;;;4.44;100.00;99238.91;4449388;32;20081;-71
2023/01/12 08:21:51;;;;;;;25.77;12.05;;;;;;;4.46;100.00;99243.19;4447088;32;20517;-69
2023/01/12 08:24:20;;;;;;;29.45;13.25;;;;;;;4.65;100.00;99241.22;4431002;32;20097;-70
2023/01/12 08:26:50;;;;;;;31.40;13.65;;;;;;;4.61;100.00;99243.12;4443951;32;20093;-71
2023/01/12 08:29:28;;;;;;;33.33;14.38;;;;;;;4.68;100.00;99246.22;4446701;32;20150;-71
2023/01/12 08:32:02;;;;;;;39.40;13.38;;;;;;;4.68;100.00;99247.97;4450884;32;20136;-71
2023/01/12 08:34:32;;;;;;;31.35;13.45;;;;;;;4.76;100.00;99241.44;4437272;32;20572;-70
2023/01/12 08:37:03;;;;;;;34.92;13.73;;;;;;;4.86;100.00;99244.34;4433376;32;20109;-70
2023/01/12 08:39:34;;;;;;;30.35;14.90;;;;;;;4.97;100.00;99248.91;4449390;32;20547;-71
2023/01/12 08:42:02;;;;;;;42.17;15.90;;;;;;;5.03;100.00;99255.50;4444060;32;20101;-70
2023/01/12 08:44:34;;;;;;;32.58;13.93;;;;;;;4.97;100.00;99262.72;4438265;32;20101;-71
2023/01/12 08:47:03;;;;;;;35.25;13.50;;;;;;;5.04;100.00;99262.34;4441087;32;20108;-71
2023/01/12 08:49:31;;;;;;;39.38;13.82;;;;;;;5.01;100.00;99257.34;4443353;32;20458;-71
2023/01/12 08:51:58;;;;;;;29.87;13.13;;;;;;;5.04;100.00;99260.59;4441553;32;20123;-71
2023/01/12 08:54:26;;;;;;;31.00;13.23;;;;;;;5.19;100.00;99263.22;4447968;32;20506;-71
2023/01/12 08:56:53;;;;;;;35.67;14.32;;;;;;;5.42;100.00;99251.44;4451658;32;20172;-71
2023/01/12 08:59:21;;;;;;;33.20;14.23;;;;;;;5.54;100.00;99252.47;4449500;32;20120;-71
2023/01/12 09:01:49;;;;;;;32.60;13.45;;;;;;;5.46;100.00;99253.75;4450577;32;20763;-72
2023/01/12 09:04:16;;;;;;;31.10;13.30;;;;;;;5.44;100.00;99260.00;4450586;32;20164;-71
2023/01/12 09:06:44;;;;;;;29.75;13.27;;;;;;;5.57;100.00;99250.53;4451511;32;20101;-72
2023/01/12 09:09:15;;;;;;;32.38;13.52;;;;;;;5.80;100.00;99259.53;4452671;32;20156;-71
2023/01/12 09:11:43;;;;;;;26.25;13.25;;;;;;;6.10;100.00;99260.31;4448230;32;20108;-70
2023/01/12 09:14:11;;;;;;;24.08;12.35;;;;;;;6.09;100.00;99258.69;4451684;32;20104;-71
2023/01/12 09:16:39;;;;;;;21.62;11.00;;;;;;;6.25;100.00;99251.53;4452477;32;20096;-71
2023/01/12 09:19:08;;;;;;;26.48;11.38;;;;;;;6.18;100.00;99253.72;4451023;32;20097;-71
2023/01/12 09:21:37;;;;;;;24.60;11.75;;;;;;;6.40;100.00;99252.34;4440788;32;20113;-69
2023/01/12 09:24:05;;;;;;;21.75;10.90;;;;;;;6.29;100.00;99254.81;4446539;32;20150;-70
2023/01/12 09:26:37;;;;;;;21.12;10.15;;;;;;;6.30;100.00;99254.69;4445331;32;20168;-70
2023/01/12 09:29:06;;;;;;;20.53;9.17;;;;;;;6.37;100.00;99258.59;4451003;32;20089;-71
2023/01/12 09:31:34;;;;;;;25.40;12.05;;;;;;;6.44;100.00;99266.00;4449305;32;20109;-71
2023/01/12 09:34:03;;;;;;;19.50;10.45;;;;;;;6.34;100.00;99263.13;4448465;32;20136;-73
2023/01/12 09:36:33;;;;;;;18.80;10.32;;;;;;;6.24;100.00;99256.84;4450134;32;20172;-72
2023/01/12 09:39:00;;;;;;;19.05;8.77;;;;;;;6.32;100.00;99259.81;4449417;32;20150;-71
2023/01/12 09:47:39;;;;;;;23.95;11.12;;;;;;;6.03;100.00;99252.09;4433271;32;20107;-70
2023/01/12 09:50:15;;;;;;;18.83;10.52;;;;;;;6.49;100.00;99259.53;4447713;32;20096;-70
2023/01/12 09:52:56;;;;;;;21.12;9.63;;;;;;;6.63;100.00;99253.47;4436369;32;20426;-70
2023/01/12 09:55:25;;;;;;;19.08;9.88;;;;;;;6.73;100.00;99258.91;4450010;32;20128;-69
2023/01/12 09:58:15;;;;;;;18.85;8.73;;;;;;;6.62;100.00;99248.38;4434392;32;20107;-73
2023/01/12 10:00:42;;;;;;;18.33;8.30;;;;;;;6.61;100.00;99252.72;4386539;32;20189;-73
2023/01/12 10:03:10;;;;;;;21.70;10.18;;;;;;;6.72;100.00;99252.00;4386511;32;20842;-71
2023/01/12 10:05:48;;;;;;;23.10;9.98;;;;;;;6.85;100.00;99250.28;4388780;32;20103;-71
2023/01/12 10:08:41;;;;;;;24.98;10.68;;;;;;;6.91;100.00;99251.66;4371044;32;20120;-74
2023/01/12 10:11:16;;;;;;;23.30;11.73;;;;;;;6.83;100.00;99252.16;4388898;32;20086;-71
2023/01/12 10:14:04;;;;;;;27.13;11.12;;;;;;;6.83;100.00;99246.09;4372091;32;20170;-71
2023/01/12 10:17:12;;;;;;;22.80;11.05;;;;;;;6.83;100.00;99233.94;4376901;32;20193;-73
2023/01/12 10:19:58;;;;;;;22.27;11.85;;;;;;;6.84;100.00;99239.97;4385549;32;20456;-70
2023/01/12 10:22:37;;;;;;;24.35;11.82;;;;;;;6.84;100.00;99237.34;4384896;32;20126;-69
2023/01/12 10:25:13;;;;;;;25.48;11.65;;;;;;;6.91;100.00;99239.44;4381916;32;20262;-70
2023/01/12 10:27:43;;;;;;;25.08;11.30;;;;;;;7.03;100.00;99240.41;4372013;32;80667;-70
2023/01/12 10:30:12;;;;;;;24.90;11.43;;;;;;;6.91;100.00;99236.84;4380846;32;20137;-71
2023/01/12 10:32:39;;;;;;;22.75;11.35;;;;;;;6.80;100.00;99234.13;4382961;32;20181;-73
2023/01/12 10:35:16;;;;;;;23.50;11.38;;;;;;;7.01;100.00;99231.87;4385012;32;20140;-72
2023/01/12 10:37:50;;;;;;;24.30;10.82;;;;;;;6.67;100.00;99230.66;4394674;32;20212;-71
2023/01/12 10:40:25;;;;;;;25.33;12.85;;;;;;;6.51;100.00;99230.81;4450993;32;20237;-72
2023/01/12 10:43:17;;;;;;;19.58;11.40;;;;;;;6.65;100.00;99224.72;4447824;32;20181;-71
2023/01/12 10:46:07;;;;;;;23.25;10.95;;;;;;;6.52;100.00;99225.50;4444962;32;20100;-71
2023/01/12 10:48:35;;;;;;;22.13;11.05;;;;;;;6.60;100.00;99224.19;4446801;32;20101;-70
2023/01/12 10:51:05;;;;;;;22.33;11.73;;;;;;;6.45;100.00;99213.84;4438629;32;20098;-70
2023/01/12 10:53:37;;;;;;;24.85;11.73;;;;;;;6.51;100.00;99221.25;4449403;32;20127;-71
2023/01/12 10:56:35;;;;;;;27.15;12.10;;;;;;;6.64;100.00;99220.44;4434080;32;20536;-71
2023/01/12 10:59:11;;;;;;;25.17;11.65;;;;;;;6.57;100.00;99223.47;4443726;32;20105;-70
2023/01/12 11:01:58;;;;;;;24.70;12.00;;;;;;;6.53;100.00;99221.16;4447630;32;20113;-70
2023/01/12 11:04:28;;;;;;;23.38;12.37;;;;;;;6.48;100.00;99216.25;4450238;32;20101;-72
2023/01/12 11:07:01;;;;;;;28.23;12.93;;;;;;;6.48;100.00;99216.25;4431589;32;20170;-71
2023/01/12 11:09:31;;;;;;;25.27;11.93;;;;;;;6.52;100.00;99209.06;4451376;32;20573;-70
2023/01/12 11:12:00;;;;;;;25.27;11.60;;;;;;;6.45;100.00;99213.00;4447897;32;20144;-71
2023/01/12 11:14:31;;;;;;;27.80;12.75;;;;;;;6.39;100.00;99203.84;4452261;32;20153;-71
2023/01/12 11:17:27;;;;;;;24.52;12.52;;;;;;;6.52;100.00;99204.69;4425584;32;20101;-71
2023/01/12 11:19:56;;;;;;;23.10;11.55;;;;;;;6.44;100.00;99191.34;4370742;32;20184;-71
2023/01/12 11:22:26;;;;;;;25.30;12.77;;;;;;;6.50;100.00;99206.56;4376017;32;20613;-71
2023/01/12 11:25:06;;;;;;;24.50;11.88;;;;;;;6.45;100.00;99203.44;4356404;32;20094;-71
2023/01/12 11:27:48;;;;;;;27.45;13.18;;;;;;;6.44;100.00;99212.19;4369742;32;20165;-71
2023/01/12 11:30:27;;;;;;;27.35;12.48;;;;;;;6.54;100.00;99202.84;4376571;32;20111;-71
2023/01/12 11:33:17;;;;;;;30.80;13.13;;;;;;;6.62;100.00;99198.91;4370353;32;20110;-71
2023/01/12 11:35:51;;;;;;;27.13;12.10;;;;;;;6.51;100.00;99187.41;4371618;32;20115;-72
2023/01/12 11:38:32;;;;;;;25.23;11.88;;;;;;;6.67;100.00;99181.19;4358257;32;20118;-72
2023/01/12 11:41:00;;;;;;;23.45;12.57;;;;;;;6.66;100.00;99180.38;4372208;32;20115;-72
2023/01/12 11:43:54;;;;;;;27.45;12.23;;;;;;;6.72;100.00;99189.53;4360296;32;20131;-72
2023/01/12 11:46:34;;;;;;;30.23;13.75;;;;;;;6.72;100.00;99179.09;4373950;32;20098;-71
2023/01/12 11:49:23;;;;;;;26.83;12.93;;;;;;;6.88;100.00;99176.31;4351967;32;20115;-71
2023/01/12 11:51:55;;;;;;;27.00;12.35;;;;;;;6.79;100.00;99180.38;4370265;32;20106;-71
2023/01/12 11:54:24;;;;;;;27.87;13.82;;;;;;;6.77;100.00;99182.25;4369753;32;20672;-71
2023/01/12 11:56:54;;;;;;;23.48;12.07;;;;;;;6.85;100.00;99179.97;4394538;32;20155;-71
2023/01/12 12:00:00;;;;;;;24.75;12.80;;;;;;;6.80;100.00;99182.03;4449178;32;20753;-70
2023/01/12 12:02:39;;;;;;;;;;;;;;;6.78;100.00;99191.72;4384120;32;20537;-71
2023/01/12 12:05:22;;;;;;;22.48;12.50;;;;;;;6.81;100.00;99182.88;4388157;32;19985;-71
2023/01/12 12:07:51;;;;;;;25.58;11.95;;;;;;;7.02;100.00;99172.78;4389633;32;20119;-72
2023/01/12 12:10:24;;;;;;;26.08;13.20;;;;;;;7.07;100.00;99170.69;4388317;32;20236;-71
2023/01/12 12:13:12;;;;;;;27.42;13.07;;;;;;;7.02;100.00;99168.38;4386948;32;20149;-71